sensor_id;sensor_type;location;lat;lon;timestamp;temperature;humidity
21849;DHT22;11089;49.852;19.700;2023-12-07T00:00:03;-2.50;1.00
21849;DHT22;11089;49.852;19.700;2023-12-07T00:03:04;-2.50;1.00
21849;DHT22;11089;49.852;19.700;2023-12-07T00:06:07;-2.50;1.00
21849;DHT22;11089;49.852;19.700;2023-12-07T00:09:08;-2.50;1.00
21849;DHT22;11089;49.852;19.700;2023-12-07T00:12:09;-2.50;1.00
21849;DHT22;11089;49.852;19.700;2023-12-07T00:15:10;-2.40;1.00
21849;DHT22;11089;49.852;19.700;2023-12-07T00:18:10;-2.30;1.00
21849;DHT22;11089;49.852;19.700;2023-12-07T00:21:11;-2.40;99.90
21849;DHT22;11089;49.852;19.700;2023-12-07T00:24:12;-2.30;99.90
21849;DHT22;11089;49.852;19.700;2023-12-07T00:27:13;-2.40;99.90
21849;DHT22;11089;49.852;19.700;2023-12-07T00:30:14;-2.40;99.90
21849;DHT22;11089;49.852;19.700;2023-12-07T00:33:15;-2.40;99.90
21849;DHT22;11089;49.852;19.700;2023-12-07T00:36:17;-2.50;99.90
21849;DHT22;11089;49.852;19.700;2023-12-07T00:39:18;-2.50;99.90
21849;DHT22;11089;49.852;19.700;2023-12-07T00:42:18;-2.60;99.90
21849;DHT22;11089;49.852;19.700;2023-12-07T00:45:19;-2.70;1.00
21849;DHT22;11089;49.852;19.700;2023-12-07T00:48:20;-2.70;1.00
21849;DHT22;11089;49.852;19.700;2023-12-07T00:51:21;-2.80;1.00
21849;DHT22;11089;49.852;19.700;2023-12-07T00:54:22;-2.70;1.00
21849;DHT22;11089;49.852;19.700;2023-12-07T00:57:22;-2.60;1.00
21849;DHT22;11089;49.852;19.700;2023-12-07T01:00:23;-2.50;1.00
21849;DHT22;11089;49.852;19.700;2023-12-07T01:03:24;-2.50;1.00
21849;DHT22;11089;49.852;19.700;2023-12-07T01:06:25;-2.50;1.00
21849;DHT22;11089;49.852;19.700;2023-12-07T01:09:26;-2.40;1.00
21849;DHT22;11089;49.852;19.700;2023-12-07T01:12:27;-2.30;99.90
21849;DHT22;11089;49.852;19.700;2023-12-07T01:15:28;-2.40;99.90
21849;DHT22;11089;49.852;19.700;2023-12-07T01:18:29;-2.30;99.90
21849;DHT22;11089;49.852;19.700;2023-12-07T01:21:30;-2.40;99.90
21849;DHT22;11089;49.852;19.700;2023-12-07T01:24:30;-2.50;1.00
21849;DHT22;11089;49.852;19.700;2023-12-07T01:27:31;-2.50;1.00
21849;DHT22;11089;49.852;19.700;2023-12-07T01:30:32;-2.40;1.00
21849;DHT22;11089;49.852;19.700;2023-12-07T01:33:33;-2.40;1.00
21849;DHT22;11089;49.852;19.700;2023-12-07T01:36:34;-2.60;1.00
21849;DHT22;11089;49.852;19.700;2023-12-07T01:39:34;-2.70;1.00
21849;DHT22;11089;49.852;19.700;2023-12-07T01:42:36;-2.80;1.00
21849;DHT22;11089;49.852;19.700;2023-12-07T01:45:37;-2.80;1.00
21849;DHT22;11089;49.852;19.700;2023-12-07T01:48:38;-2.80;1.00
21849;DHT22;11089;49.852;19.700;2023-12-07T01:51:39;-2.90;99.90
21849;DHT22;11089;49.852;19.700;2023-12-07T01:54:40;-3.00;1.00
21849;DHT22;11089;49.852;19.700;2023-12-07T01:57:43;-2.90;99.90
21849;DHT22;11089;49.852;19.700;2023-12-07T02:00:45;-2.80;1.00
21849;DHT22;11089;49.852;19.700;2023-12-07T02:03:46;-2.70;1.00
21849;DHT22;11089;49.852;19.700;2023-12-07T02:06:47;-2.70;99.90
21849;DHT22;11089;49.852;19.700;2023-12-07T02:09:49;-2.70;1.00
21849;DHT22;11089;49.852;19.700;2023-12-07T02:12:50;-2.70;99.90
21849;DHT22;11089;49.852;19.700;2023-12-07T02:15:52;-2.70;41.60
21849;DHT22;11089;49.852;19.700;2023-12-07T02:22:10;-2.70;99.90
21849;DHT22;11089;49.852;19.700;2023-12-07T02:25:14;-2.70;1.00
21849;DHT22;11089;49.852;19.700;2023-12-07T02:28:15;-2.60;1.00
21849;DHT22;11089;49.852;19.700;2023-12-07T02:31:16;-2.60;1.00
21849;DHT22;11089;49.852;19.700;2023-12-07T02:34:17;-2.70;40.20
21849;DHT22;11089;49.852;19.700;2023-12-07T02:37:19;-2.60;1.00
21849;DHT22;11089;49.852;19.700;2023-12-07T02:40:25;-2.60;1.00
21849;DHT22;11089;49.852;19.700;2023-12-07T02:43:26;-2.70;1.00
21849;DHT22;11089;49.852;19.700;2023-12-07T02:46:27;-2.80;99.90
21849;DHT22;11089;49.852;19.700;2023-12-07T02:49:28;-2.80;99.90
21849;DHT22;11089;49.852;19.700;2023-12-07T02:52:29;-2.70;99.90
21849;DHT22;11089;49.852;19.700;2023-12-07T02:55:30;-2.70;99.90
21849;DHT22;11089;49.852;19.700;2023-12-07T02:58:30;-2.60;43.10
21849;DHT22;11089;49.852;19.700;2023-12-07T03:01:31;-2.60;56.80
21849;DHT22;11089;49.852;19.700;2023-12-07T03:04:32;-2.60;99.90
21849;DHT22;11089;49.852;19.700;2023-12-07T03:07:34;-2.60;90.10
21849;DHT22;11089;49.852;19.700;2023-12-07T03:10:35;-2.80;99.90
21849;DHT22;11089;49.852;19.700;2023-12-07T03:13:36;-2.90;1.00
21849;DHT22;11089;49.852;19.700;2023-12-07T03:16:36;-2.90;99.90
21849;DHT22;11089;49.852;19.700;2023-12-07T03:19:40;-2.80;99.90
21849;DHT22;11089;49.852;19.700;2023-12-07T03:22:41;-2.70;91.60
21849;DHT22;11089;49.852;19.700;2023-12-07T03:25:42;-2.70;1.00
21849;DHT22;11089;49.852;19.700;2023-12-07T03:28:43;-2.60;99.90
21849;DHT22;11089;49.852;19.700;2023-12-07T03:31:43;-2.70;99.90
21849;DHT22;11089;49.852;19.700;2023-12-07T03:34:44;-2.60;1.00
21849;DHT22;11089;49.852;19.700;2023-12-07T03:37:45;-2.60;99.90
21849;DHT22;11089;49.852;19.700;2023-12-07T03:40:46;-2.60;1.00
21849;DHT22;11089;49.852;19.700;2023-12-07T03:43:48;-2.50;1.00
21849;DHT22;11089;49.852;19.700;2023-12-07T03:46:49;-2.50;1.00
21849;DHT22;11089;49.852;19.700;2023-12-07T03:49:50;-2.50;1.00
21849;DHT22;11089;49.852;19.700;2023-12-07T03:52:51;-2.70;1.00
21849;DHT22;11089;49.852;19.700;2023-12-07T03:55:52;-2.80;1.00
21849;DHT22;11089;49.852;19.700;2023-12-07T03:58:53;-2.70;97.70
21849;DHT22;11089;49.852;19.700;2023-12-07T04:01:53;-2.70;1.00
21849;DHT22;11089;49.852;19.700;2023-12-07T04:04:54;-2.70;1.00
21849;DHT22;11089;49.852;19.700;2023-12-07T04:07:55;-2.70;1.00
21849;DHT22;11089;49.852;19.700;2023-12-07T04:10:56;-2.80;1.00
21849;DHT22;11089;49.852;19.700;2023-12-07T04:13:57;-2.90;1.00
21849;DHT22;11089;49.852;19.700;2023-12-07T04:16:58;-2.90;99.90
21849;DHT22;11089;49.852;19.700;2023-12-07T04:19:59;-2.90;99.90
21849;DHT22;11089;49.852;19.700;2023-12-07T04:23:00;-2.80;99.90
21849;DHT22;11089;49.852;19.700;2023-12-07T04:26:00;-2.80;99.90
21849;DHT22;11089;49.852;19.700;2023-12-07T04:29:01;-2.70;59.00
21849;DHT22;11089;49.852;19.700;2023-12-07T04:32:02;-2.80;99.90
21849;DHT22;11089;49.852;19.700;2023-12-07T04:35:04;-2.90;99.90
21849;DHT22;11089;49.852;19.700;2023-12-07T04:38:05;-2.80;1.00
21849;DHT22;11089;49.852;19.700;2023-12-07T04:41:06;-2.70;99.90
21849;DHT22;11089;49.852;19.700;2023-12-07T04:44:06;-2.70;1.00
21849;DHT22;11089;49.852;19.700;2023-12-07T04:47:07;-2.60;1.00
21849;DHT22;11089;49.852;19.700;2023-12-07T04:50:08;-2.50;99.90
21849;DHT22;11089;49.852;19.700;2023-12-07T04:53:10;-2.50;99.90
21849;DHT22;11089;49.852;19.700;2023-12-07T04:56:11;-2.40;99.90
21849;DHT22;11089;49.852;19.700;2023-12-07T04:59:12;-2.60;16.70
21849;DHT22;11089;49.852;19.700;2023-12-07T05:02:16;-2.60;99.90
21849;DHT22;11089;49.852;19.700;2023-12-07T05:05:17;-2.60;99.90
21849;DHT22;11089;49.852;19.700;2023-12-07T05:08:18;-2.70;1.00
21849;DHT22;11089;49.852;19.700;2023-12-07T05:11:19;-2.60;1.00
21849;DHT22;11089;49.852;19.700;2023-12-07T05:14:19;-2.80;1.00
21849;DHT22;11089;49.852;19.700;2023-12-07T05:17:20;-2.70;1.00
21849;DHT22;11089;49.852;19.700;2023-12-07T05:20:21;-2.60;1.00
21849;DHT22;11089;49.852;19.700;2023-12-07T05:23:23;-2.70;1.00
21849;DHT22;11089;49.852;19.700;2023-12-07T05:26:24;-2.70;1.00
21849;DHT22;11089;49.852;19.700;2023-12-07T05:29:24;-2.60;1.00
21849;DHT22;11089;49.852;19.700;2023-12-07T05:32:25;-2.50;1.00
21849;DHT22;11089;49.852;19.700;2023-12-07T05:35:26;-2.50;99.90
21849;DHT22;11089;49.852;19.700;2023-12-07T05:38:27;-2.50;63.10
21849;DHT22;11089;49.852;19.700;2023-12-07T05:41:28;-2.50;23.20
21849;DHT22;11089;49.852;19.700;2023-12-07T05:44:29;-2.40;99.90
21849;DHT22;11089;49.852;19.700;2023-12-07T05:47:30;-2.40;1.00
21849;DHT22;11089;49.852;19.700;2023-12-07T05:50:31;-2.30;1.00
21849;DHT22;11089;49.852;19.700;2023-12-07T05:53:32;-2.40;1.00
21849;DHT22;11089;49.852;19.700;2023-12-07T05:56:33;-2.40;1.00
21849;DHT22;11089;49.852;19.700;2023-12-07T05:59:37;-2.40;1.00
21849;DHT22;11089;49.852;19.700;2023-12-07T06:02:39;-2.40;1.00
21849;DHT22;11089;49.852;19.700;2023-12-07T06:05:40;-2.30;1.00
21849;DHT22;11089;49.852;19.700;2023-12-07T06:08:41;-2.40;1.00
21849;DHT22;11089;49.852;19.700;2023-12-07T06:11:42;-2.30;1.00
21849;DHT22;11089;49.852;19.700;2023-12-07T06:14:43;-2.40;1.00
21849;DHT22;11089;49.852;19.700;2023-12-07T06:17:44;-2.60;99.90
21849;DHT22;11089;49.852;19.700;2023-12-07T06:20:44;-2.60;16.70
21849;DHT22;11089;49.852;19.700;2023-12-07T06:23:45;-2.60;1.00
21849;DHT22;11089;49.852;19.700;2023-12-07T06:26:47;-2.70;1.00
21849;DHT22;11089;49.852;19.700;2023-12-07T06:29:48;-2.70;1.00
21849;DHT22;11089;49.852;19.700;2023-12-07T06:32:48;-2.80;1.00
21849;DHT22;11089;49.852;19.700;2023-12-07T06:35:49;-2.80;1.00
21849;DHT22;11089;49.852;19.700;2023-12-07T06:38:50;-2.80;1.00
21849;DHT22;11089;49.852;19.700;2023-12-07T06:41:51;-2.80;99.90
21849;DHT22;11089;49.852;19.700;2023-12-07T06:44:51;-2.70;99.90
21849;DHT22;11089;49.852;19.700;2023-12-07T06:47:52;-2.60;1.00
21849;DHT22;11089;49.852;19.700;2023-12-07T06:50:53;-2.60;1.00
21849;DHT22;11089;49.852;19.700;2023-12-07T06:53:54;-2.60;1.00
21849;DHT22;11089;49.852;19.700;2023-12-07T06:56:55;-2.60;1.00
21849;DHT22;11089;49.852;19.700;2023-12-07T06:59:56;-2.60;1.00
21849;DHT22;11089;49.852;19.700;2023-12-07T07:02:57;-2.50;1.00
21849;DHT22;11089;49.852;19.700;2023-12-07T07:05:58;-2.50;99.90
21849;DHT22;11089;49.852;19.700;2023-12-07T07:09:00;-2.60;99.90
21849;DHT22;11089;49.852;19.700;2023-12-07T07:12:01;-2.60;1.00
21849;DHT22;11089;49.852;19.700;2023-12-07T07:15:01;-2.60;1.00
21849;DHT22;11089;49.852;19.700;2023-12-07T07:18:02;-2.60;11.30
21849;DHT22;11089;49.852;19.700;2023-12-07T07:21:04;-2.50;1.00
21849;DHT22;11089;49.852;19.700;2023-12-07T07:24:05;-2.60;1.00
21849;DHT22;11089;49.852;19.700;2023-12-07T07:27:07;-2.50;1.00
21849;DHT22;11089;49.852;19.700;2023-12-07T07:30:08;-2.50;1.00
21849;DHT22;11089;49.852;19.700;2023-12-07T07:33:09;-2.50;99.90
21849;DHT22;11089;49.852;19.700;2023-12-07T07:36:10;-2.50;1.00
21849;DHT22;11089;49.852;19.700;2023-12-07T07:39:11;-2.40;99.90
21849;DHT22;11089;49.852;19.700;2023-12-07T07:42:14;-2.40;99.90
21849;DHT22;11089;49.852;19.700;2023-12-07T07:45:15;-2.40;99.90
21849;DHT22;11089;49.852;19.700;2023-12-07T07:48:16;-2.30;99.90
21849;DHT22;11089;49.852;19.700;2023-12-07T07:51:17;-2.30;99.90
21849;DHT22;11089;49.852;19.700;2023-12-07T07:54:18;-2.30;1.00
21849;DHT22;11089;49.852;19.700;2023-12-07T07:57:19;-2.30;1.00
21849;DHT22;11089;49.852;19.700;2023-12-07T08:00:19;-2.20;1.00
21849;DHT22;11089;49.852;19.700;2023-12-07T08:03:21;-2.10;99.90
21849;DHT22;11089;49.852;19.700;2023-12-07T08:06:22;-2.10;1.00
21849;DHT22;11089;49.852;19.700;2023-12-07T08:09:23;-2.00;1.00
21849;DHT22;11089;49.852;19.700;2023-12-07T08:12:24;-2.10;1.00
21849;DHT22;11089;49.852;19.700;2023-12-07T08:15:24;-2.10;81.60
21849;DHT22;11089;49.852;19.700;2023-12-07T08:18:25;-2.10;99.90
21849;DHT22;11089;49.852;19.700;2023-12-07T08:21:26;-2.00;99.90
21849;DHT22;11089;49.852;19.700;2023-12-07T08:24:30;-2.00;1.00
21849;DHT22;11089;49.852;19.700;2023-12-07T08:27:32;-2.00;1.00
21849;DHT22;11089;49.852;19.700;2023-12-07T08:30:33;-2.00;1.00
21849;DHT22;11089;49.852;19.700;2023-12-07T08:33:34;-2.00;1.00
21849;DHT22;11089;49.852;19.700;2023-12-07T08:36:35;-1.90;1.00
21849;DHT22;11089;49.852;19.700;2023-12-07T08:39:35;-1.90;99.90
21849;DHT22;11089;49.852;19.700;2023-12-07T08:42:36;-1.90;99.90
21849;DHT22;11089;49.852;19.700;2023-12-07T08:45:37;-1.90;99.90
21849;DHT22;11089;49.852;19.700;2023-12-07T08:48:38;-1.90;1.00
21849;DHT22;11089;49.852;19.700;2023-12-07T08:51:39;-1.80;1.00
21849;DHT22;11089;49.852;19.700;2023-12-07T08:54:40;-1.80;99.90
21849;DHT22;11089;49.852;19.700;2023-12-07T08:57:41;-1.70;1.00
21849;DHT22;11089;49.852;19.700;2023-12-07T09:00:41;-1.70;1.00
21849;DHT22;11089;49.852;19.700;2023-12-07T09:03:42;-1.70;1.00
21849;DHT22;11089;49.852;19.700;2023-12-07T09:06:43;-1.60;1.00
21849;DHT22;11089;49.852;19.700;2023-12-07T09:09:44;-1.60;1.00
21849;DHT22;11089;49.852;19.700;2023-12-07T09:12:48;-1.50;1.00
21849;DHT22;11089;49.852;19.700;2023-12-07T09:15:49;-1.50;1.00
21849;DHT22;11089;49.852;19.700;2023-12-07T09:18:50;-1.40;99.90
21849;DHT22;11089;49.852;19.700;2023-12-07T09:21:50;-1.40;99.90
21849;DHT22;11089;49.852;19.700;2023-12-07T09:24:51;-1.40;99.90
21849;DHT22;11089;49.852;19.700;2023-12-07T09:27:52;-1.30;1.00
21849;DHT22;11089;49.852;19.700;2023-12-07T09:30:53;-1.30;99.90
21849;DHT22;11089;49.852;19.700;2023-12-07T09:33:53;-1.30;99.90
21849;DHT22;11089;49.852;19.700;2023-12-07T09:37:07;-1.20;78.70
21849;DHT22;11089;49.852;19.700;2023-12-07T09:40:17;-1.20;1.00
21849;DHT22;11089;49.852;19.700;2023-12-07T09:43:19;-1.20;99.90
21849;DHT22;11089;49.852;19.700;2023-12-07T09:46:19;-1.20;1.00
21849;DHT22;11089;49.852;19.700;2023-12-07T09:49:21;-1.10;1.00
21849;DHT22;11089;49.852;19.700;2023-12-07T09:52:22;-1.10;1.00
21849;DHT22;11089;49.852;19.700;2023-12-07T09:55:24;-1.00;1.00
21849;DHT22;11089;49.852;19.700;2023-12-07T09:58:26;-1.00;99.90
21849;DHT22;11089;49.852;19.700;2023-12-07T10:01:30;-0.90;99.90
21849;DHT22;11089;49.852;19.700;2023-12-07T10:04:31;-0.90;99.90
21849;DHT22;11089;49.852;19.700;2023-12-07T10:07:33;-0.80;53.10
21849;DHT22;11089;49.852;19.700;2023-12-07T10:10:38;-0.80;1.00
21849;DHT22;11089;49.852;19.700;2023-12-07T10:13:39;-0.80;1.00
21849;DHT22;11089;49.852;19.700;2023-12-07T10:17:00;-0.80;1.00
21849;DHT22;11089;49.852;19.700;2023-12-07T10:20:07;-0.70;1.00
21849;DHT22;11089;49.852;19.700;2023-12-07T10:23:12;-0.70;1.00
21849;DHT22;11089;49.852;19.700;2023-12-07T10:26:13;-0.70;1.00
21849;DHT22;11089;49.852;19.700;2023-12-07T10:29:19;-0.60;1.00
21849;DHT22;11089;49.852;19.700;2023-12-07T10:32:22;-0.60;1.00
21849;DHT22;11089;49.852;19.700;2023-12-07T10:35:23;-0.70;99.90
21849;DHT22;11089;49.852;19.700;2023-12-07T10:38:23;-0.70;1.00
21849;DHT22;11089;49.852;19.700;2023-12-07T10:41:25;-0.70;1.00
21849;DHT22;11089;49.852;19.700;2023-12-07T10:44:26;-0.60;1.00
21849;DHT22;11089;49.852;19.700;2023-12-07T10:47:28;-0.60;99.90
21849;DHT22;11089;49.852;19.700;2023-12-07T10:50:31;-0.60;1.00
21849;DHT22;11089;49.852;19.700;2023-12-07T10:53:38;-0.60;1.00
21849;DHT22;11089;49.852;19.700;2023-12-07T10:56:45;-0.60;1.00
21849;DHT22;11089;49.852;19.700;2023-12-07T10:59:48;-0.60;1.00
21849;DHT22;11089;49.852;19.700;2023-12-07T11:02:51;-0.50;1.00
21849;DHT22;11089;49.852;19.700;2023-12-07T11:05:54;-0.40;1.00
21849;DHT22;11089;49.852;19.700;2023-12-07T11:09:13;-0.40;1.00
21849;DHT22;11089;49.852;19.700;2023-12-07T11:12:35;-0.50;99.90
21849;DHT22;11089;49.852;19.700;2023-12-07T11:15:37;-0.40;1.00
21849;DHT22;11089;49.852;19.700;2023-12-07T11:18:38;-0.40;1.00
21849;DHT22;11089;49.852;19.700;2023-12-07T11:21:39;-0.40;1.00
21849;DHT22;11089;49.852;19.700;2023-12-07T11:24:56;-0.40;1.00
21849;DHT22;11089;49.852;19.700;2023-12-07T11:28:02;-0.50;1.00
21849;DHT22;11089;49.852;19.700;2023-12-07T11:31:06;-0.40;1.00
21849;DHT22;11089;49.852;19.700;2023-12-07T11:34:07;-0.40;99.90
21849;DHT22;11089;49.852;19.700;2023-12-07T11:37:17;-0.40;99.90
21849;DHT22;11089;49.852;19.700;2023-12-07T11:40:20;-0.40;99.90
21849;DHT22;11089;49.852;19.700;2023-12-07T11:46:39;-0.30;99.90
21849;DHT22;11089;49.852;19.700;2023-12-07T11:49:40;-0.30;60.50
21849;DHT22;11089;49.852;19.700;2023-12-07T11:52:41;-0.30;99.90
21849;DHT22;11089;49.852;19.700;2023-12-07T11:55:42;-0.30;1.00
21849;DHT22;11089;49.852;19.700;2023-12-07T11:58:44;-0.30;99.90
21849;DHT22;11089;49.852;19.700;2023-12-07T12:01:48;-0.30;51.30
21849;DHT22;11089;49.852;19.700;2023-12-07T12:04:49;-0.30;97.20
21849;DHT22;11089;49.852;19.700;2023-12-07T12:07:50;-0.30;94.60
21849;DHT22;11089;49.852;19.700;2023-12-07T12:10:51;-0.30;70.90
21849;DHT22;11089;49.852;19.700;2023-12-07T12:13:53;-0.30;99.90
21849;DHT22;11089;49.852;19.700;2023-12-07T12:16:54;-0.30;99.90
21849;DHT22;11089;49.852;19.700;2023-12-07T12:19:58;-0.30;99.90
21849;DHT22;11089;49.852;19.700;2023-12-07T12:22:59;-0.30;99.90
21849;DHT22;11089;49.852;19.700;2023-12-07T12:26:03;-0.20;99.90
21849;DHT22;11089;49.852;19.700;2023-12-07T12:29:05;-0.20;99.90
21849;DHT22;11089;49.852;19.700;2023-12-07T12:32:09;-0.30;99.90
21849;DHT22;11089;49.852;19.700;2023-12-07T12:35:10;-0.20;99.90
21849;DHT22;11089;49.852;19.700;2023-12-07T12:38:12;-0.20;1.00
21849;DHT22;11089;49.852;19.700;2023-12-07T12:41:21;-0.20;1.00
21849;DHT22;11089;49.852;19.700;2023-12-07T12:44:22;-0.20;1.00
21849;DHT22;11089;49.852;19.700;2023-12-07T12:47:23;-0.20;1.00
21849;DHT22;11089;49.852;19.700;2023-12-07T12:50:39;-0.20;1.00
21849;DHT22;11089;49.852;19.700;2023-12-07T12:53:46;-0.20;1.00
21849;DHT22;11089;49.852;19.700;2023-12-07T12:56:50;-0.20;1.00
21849;DHT22;11089;49.852;19.700;2023-12-07T12:59:51;-0.20;1.00
21849;DHT22;11089;49.852;19.700;2023-12-07T13:02:52;-0.20;1.00
21849;DHT22;11089;49.852;19.700;2023-12-07T13:05:53;-0.30;1.00
21849;DHT22;11089;49.852;19.700;2023-12-07T13:08:54;-0.30;99.90
21849;DHT22;11089;49.852;19.700;2023-12-07T13:11:55;-0.40;99.90
21849;DHT22;11089;49.852;19.700;2023-12-07T13:14:56;-0.40;99.90
21849;DHT22;11089;49.852;19.700;2023-12-07T13:17:57;-0.40;1.00
21849;DHT22;11089;49.852;19.700;2023-12-07T13:20:57;-0.30;1.00
21849;DHT22;11089;49.852;19.700;2023-12-07T13:24:00;-0.30;1.00
21849;DHT22;11089;49.852;19.700;2023-12-07T13:27:01;-0.30;1.00
21849;DHT22;11089;49.852;19.700;2023-12-07T13:30:03;-0.30;99.90
21849;DHT22;11089;49.852;19.700;2023-12-07T13:33:07;-0.30;1.00
21849;DHT22;11089;49.852;19.700;2023-12-07T13:36:10;-0.40;1.00
21849;DHT22;11089;49.852;19.700;2023-12-07T13:39:10;-0.50;1.00
21849;DHT22;11089;49.852;19.700;2023-12-07T13:42:13;-0.50;99.90
21849;DHT22;11089;49.852;19.700;2023-12-07T13:45:14;-0.40;99.90
21849;DHT22;11089;49.852;19.700;2023-12-07T13:48:16;-0.40;99.90
21849;DHT22;11089;49.852;19.700;2023-12-07T13:51:17;-0.40;99.90
21849;DHT22;11089;49.852;19.700;2023-12-07T13:54:18;-0.50;38.40
21849;DHT22;11089;49.852;19.700;2023-12-07T13:57:20;-0.50;99.90
21849;DHT22;11089;49.852;19.700;2023-12-07T14:00:21;-0.50;99.90
21849;DHT22;11089;49.852;19.700;2023-12-07T14:03:23;-0.60;1.00
21849;DHT22;11089;49.852;19.700;2023-12-07T14:06:24;-0.60;1.00
21849;DHT22;11089;49.852;19.700;2023-12-07T14:09:25;-0.60;1.00
21849;DHT22;11089;49.852;19.700;2023-12-07T14:12:26;-0.60;99.90
21849;DHT22;11089;49.852;19.700;2023-12-07T14:15:27;-0.70;1.00
21849;DHT22;11089;49.852;19.700;2023-12-07T14:18:28;-0.80;1.00
21849;DHT22;11089;49.852;19.700;2023-12-07T14:21:29;-0.80;1.00
21849;DHT22;11089;49.852;19.700;2023-12-07T14:24:30;-0.70;99.90
21849;DHT22;11089;49.852;19.700;2023-12-07T14:27:31;-0.70;99.90
21849;DHT22;11089;49.852;19.700;2023-12-07T14:30:32;-0.80;99.90
21849;DHT22;11089;49.852;19.700;2023-12-07T14:33:33;-0.70;45.50
21849;DHT22;11089;49.852;19.700;2023-12-07T14:36:34;-0.70;1.00
21849;DHT22;11089;49.852;19.700;2023-12-07T14:39:44;-0.70;1.00
21849;DHT22;11089;49.852;19.700;2023-12-07T14:42:44;-0.80;1.00
21849;DHT22;11089;49.852;19.700;2023-12-07T14:45:45;-0.80;1.00
21849;DHT22;11089;49.852;19.700;2023-12-07T14:48:46;-0.80;1.00
21849;DHT22;11089;49.852;19.700;2023-12-07T14:51:48;-0.70;1.00
21849;DHT22;11089;49.852;19.700;2023-12-07T14:54:48;-0.80;1.00
21849;DHT22;11089;49.852;19.700;2023-12-07T14:57:49;-0.80;1.00
21849;DHT22;11089;49.852;19.700;2023-12-07T15:00:52;-0.80;1.00
21849;DHT22;11089;49.852;19.700;2023-12-07T15:03:52;-0.90;99.90
21849;DHT22;11089;49.852;19.700;2023-12-07T15:06:53;-0.90;1.00
21849;DHT22;11089;49.852;19.700;2023-12-07T15:09:55;-0.90;1.00
21849;DHT22;11089;49.852;19.700;2023-12-07T15:12:56;-0.90;1.00
21849;DHT22;11089;49.852;19.700;2023-12-07T15:15:57;-0.90;1.00
21849;DHT22;11089;49.852;19.700;2023-12-07T15:18:57;-1.00;99.90
21849;DHT22;11089;49.852;19.700;2023-12-07T15:21:58;-1.00;1.00
21849;DHT22;11089;49.852;19.700;2023-12-07T15:24:59;-1.00;99.90
21849;DHT22;11089;49.852;19.700;2023-12-07T15:28:00;-1.10;1.00
21849;DHT22;11089;49.852;19.700;2023-12-07T15:31:00;-1.10;99.90
21849;DHT22;11089;49.852;19.700;2023-12-07T15:34:01;-1.20;99.90
21849;DHT22;11089;49.852;19.700;2023-12-07T15:37:02;-1.20;1.00
21849;DHT22;11089;49.852;19.700;2023-12-07T15:40:04;-1.10;1.00
21849;DHT22;11089;49.852;19.700;2023-12-07T15:43:05;-1.20;1.00
21849;DHT22;11089;49.852;19.700;2023-12-07T15:46:05;-1.20;1.00
21849;DHT22;11089;49.852;19.700;2023-12-07T15:49:08;-1.10;1.00
21849;DHT22;11089;49.852;19.700;2023-12-07T15:52:08;-1.20;1.00
21849;DHT22;11089;49.852;19.700;2023-12-07T15:55:09;-1.20;1.00
21849;DHT22;11089;49.852;19.700;2023-12-07T15:58:10;-1.20;1.00
21849;DHT22;11089;49.852;19.700;2023-12-07T16:01:11;-1.20;1.00
21849;DHT22;11089;49.852;19.700;2023-12-07T16:04:12;-1.20;1.00
21849;DHT22;11089;49.852;19.700;2023-12-07T16:07:15;-1.20;1.00
21849;DHT22;11089;49.852;19.700;2023-12-07T16:10:16;-1.20;1.00
21849;DHT22;11089;49.852;19.700;2023-12-07T16:13:17;-1.20;1.00
21849;DHT22;11089;49.852;19.700;2023-12-07T16:16:18;-1.20;1.00
21849;DHT22;11089;49.852;19.700;2023-12-07T16:19:19;-1.20;1.00
21849;DHT22;11089;49.852;19.700;2023-12-07T16:22:20;-1.20;1.00
21849;DHT22;11089;49.852;19.700;2023-12-07T16:25:21;-1.20;99.90
21849;DHT22;11089;49.852;19.700;2023-12-07T16:28:22;-1.20;1.00
21849;DHT22;11089;49.852;19.700;2023-12-07T16:31:22;-1.20;1.00
21849;DHT22;11089;49.852;19.700;2023-12-07T16:34:23;-1.20;99.90
21849;DHT22;11089;49.852;19.700;2023-12-07T16:37:24;-1.10;99.90
21849;DHT22;11089;49.852;19.700;2023-12-07T16:40:26;-1.10;99.90
21849;DHT22;11089;49.852;19.700;2023-12-07T16:43:28;-1.10;99.90
21849;DHT22;11089;49.852;19.700;2023-12-07T16:46:29;-1.10;99.90
21849;DHT22;11089;49.852;19.700;2023-12-07T16:49:30;-1.10;99.90
21849;DHT22;11089;49.852;19.700;2023-12-07T16:52:31;-1.10;99.90
21849;DHT22;11089;49.852;19.700;2023-12-07T16:55:31;-1.20;99.90
21849;DHT22;11089;49.852;19.700;2023-12-07T16:58:32;-1.30;1.00
21849;DHT22;11089;49.852;19.700;2023-12-07T17:01:33;-1.20;1.00
21849;DHT22;11089;49.852;19.700;2023-12-07T17:04:34;-1.20;1.00
21849;DHT22;11089;49.852;19.700;2023-12-07T17:07:35;-1.20;1.00
21849;DHT22;11089;49.852;19.700;2023-12-07T17:10:36;-1.20;1.00
21849;DHT22;11089;49.852;19.700;2023-12-07T17:13:37;-1.10;1.00
21849;DHT22;11089;49.852;19.700;2023-12-07T17:16:38;-1.20;1.00
21849;DHT22;11089;49.852;19.700;2023-12-07T17:19:39;-1.20;1.00
21849;DHT22;11089;49.852;19.700;2023-12-07T17:22:40;-1.20;1.00
21849;DHT22;11089;49.852;19.700;2023-12-07T17:25:41;-1.30;1.00
21849;DHT22;11089;49.852;19.700;2023-12-07T17:28:42;-1.20;1.00
21849;DHT22;11089;49.852;19.700;2023-12-07T17:31:43;-1.20;1.00
21849;DHT22;11089;49.852;19.700;2023-12-07T17:34:44;-1.20;1.00
21849;DHT22;11089;49.852;19.700;2023-12-07T17:37:45;-1.20;1.00
21849;DHT22;11089;49.852;19.700;2023-12-07T17:40:46;-1.10;1.00
21849;DHT22;11089;49.852;19.700;2023-12-07T17:43:47;-1.20;1.00
21849;DHT22;11089;49.852;19.700;2023-12-07T17:46:48;-1.20;1.00
21849;DHT22;11089;49.852;19.700;2023-12-07T17:49:49;-1.20;1.00
21849;DHT22;11089;49.852;19.700;2023-12-07T17:52:50;-1.20;1.00
21849;DHT22;11089;49.852;19.700;2023-12-07T17:55:51;-1.20;1.00
21849;DHT22;11089;49.852;19.700;2023-12-07T17:58:52;-1.20;1.00
21849;DHT22;11089;49.852;19.700;2023-12-07T18:01:53;-1.20;1.00
21849;DHT22;11089;49.852;19.700;2023-12-07T18:04:53;-1.20;1.00
21849;DHT22;11089;49.852;19.700;2023-12-07T18:07:54;-1.20;1.00
21849;DHT22;11089;49.852;19.700;2023-12-07T18:10:55;-1.20;1.00
21849;DHT22;11089;49.852;19.700;2023-12-07T18:13:56;-1.20;1.00
21849;DHT22;11089;49.852;19.700;2023-12-07T18:16:57;-1.30;1.00
21849;DHT22;11089;49.852;19.700;2023-12-07T18:19:58;-1.30;1.00
21849;DHT22;11089;49.852;19.700;2023-12-07T18:22:59;-1.30;1.00
21849;DHT22;11089;49.852;19.700;2023-12-07T18:26:00;-1.30;1.00
21849;DHT22;11089;49.852;19.700;2023-12-07T18:29:01;-1.30;1.00
21849;DHT22;11089;49.852;19.700;2023-12-07T18:32:02;-1.20;1.00
21849;DHT22;11089;49.852;19.700;2023-12-07T18:35:03;-1.20;1.00
21849;DHT22;11089;49.852;19.700;2023-12-07T18:38:05;-1.20;1.00
21849;DHT22;11089;49.852;19.700;2023-12-07T18:41:08;-1.30;1.00
21849;DHT22;11089;49.852;19.700;2023-12-07T18:44:09;-1.20;1.00
21849;DHT22;11089;49.852;19.700;2023-12-07T18:47:10;-1.20;1.00
21849;DHT22;11089;49.852;19.700;2023-12-07T18:50:11;-1.20;1.00
21849;DHT22;11089;49.852;19.700;2023-12-07T18:53:12;-1.20;1.00
21849;DHT22;11089;49.852;19.700;2023-12-07T18:56:15;-1.20;1.00
21849;DHT22;11089;49.852;19.700;2023-12-07T18:59:15;-1.20;1.00
21849;DHT22;11089;49.852;19.700;2023-12-07T19:02:16;-1.20;52.60
21849;DHT22;11089;49.852;19.700;2023-12-07T19:05:17;-1.10;1.00